Time;durP1;ratioP1;P1;durP2;ratioP2;P2;SDS_P1;SDS_P2;PMS_P1;PMS_P2;Temp;Humidity;BMP_temperature;BMP_pressure;BME280_temperature;BME280_humidity;BME280_pressure;Samples;Min_cycle;Max_cycle;Signal;HPM_P1;HPM_P2
2020/12/26 00:01:35;;;;;;;;;;;8.70;73.50;;;;;;4851265;28;117768;-86
2020/12/26 00:04:03;;;;;;;;;;;8.70;73.60;;;;;;4852202;28;117451;-86
2020/12/26 00:06:29;;;;;;;;;;;8.70;73.60;;;;;;4852418;28;118132;-86
2020/12/26 00:08:54;;;;;;;;;;;8.70;73.60;;;;;;4850969;28;119650;-86
2020/12/26 00:11:20;;;;;;;;;;;8.70;73.40;;;;;;4851404;28;119238;-86
2020/12/26 00:13:46;;;;;;;;;;;8.70;73.50;;;;;;4851906;28;117326;-86
2020/12/26 00:16:14;;;;;;;;;;;8.70;73.50;;;;;;4852397;28;117897;-86
2020/12/26 00:18:43;;;;;;;;;;;8.70;73.60;;;;;;4851045;28;119736;-86
2020/12/26 00:21:10;;;;;;;;;;;8.60;73.50;;;;;;4851286;28;120481;-86
2020/12/26 00:23:35;;;;;;;;;;;8.70;73.40;;;;;;4852032;28;117443;-86
2020/12/26 00:26:01;;;;;;;;;;;8.60;73.40;;;;;;4852332;28;117367;-86
2020/12/26 00:28:27;;;;;;;;;;;8.70;73.40;;;;;;4850598;28;120580;-86
2020/12/26 00:30:52;;;;;;;;;;;8.70;73.50;;;;;;4851100;28;118826;-86
2020/12/26 00:33:20;;;;;;;;;;;8.60;73.40;;;;;;4851693;28;117648;-86
2020/12/26 00:35:46;;;;;;;;;;;8.60;73.30;;;;;;4852439;28;117547;-86
2020/12/26 00:38:11;;;;;;;;;;;8.60;73.30;;;;;;4850913;28;119752;-86
2020/12/26 00:40:37;;;;;;;;;;;8.60;73.20;;;;;;4850975;28;119848;-86
2020/12/26 00:43:02;;;;;;;;;;;8.60;73.20;;;;;;4851523;28;117571;-86
2020/12/26 00:45:28;;;;;;;;;;;8.60;73.30;;;;;;4851922;28;117525;-86
2020/12/26 00:47:53;;;;;;;;;;;8.60;73.20;;;;;;4850898;28;120332;-86
2020/12/26 00:50:19;;;;;;;;;;;8.60;73.30;;;;;;4866555;28;117430;-86
2020/12/26 00:52:45;;;;;;;;;;;8.60;73.30;;;;;;4851428;28;117475;-86
2020/12/26 00:55:10;;;;;;;;;;;8.60;73.20;;;;;;4851812;28;117817;-86
2020/12/26 00:57:36;;;;;;;;;;;8.60;73.90;;;;;;4850696;28;119774;-86
2020/12/26 01:00:04;;;;;;;;;;;8.60;73.20;;;;;;4866033;28;117417;-86
2020/12/26 01:02:29;;;;;;;;;;;8.60;73.20;;;;;;4851322;28;117594;-86
2020/12/26 01:04:55;;;;;;;;;;;8.60;73.10;;;;;;4851738;28;117600;-86
2020/12/26 01:07:20;;;;;;;;;;;8.60;73.20;;;;;;4850154;28;120243;-86
2020/12/26 01:09:46;;;;;;;;;;;8.60;73.00;;;;;;4850331;28;120180;-86
2020/12/26 01:12:11;;;;;;;;;;;8.60;73.10;;;;;;4851332;28;117580;-86
2020/12/26 01:14:37;;;;;;;;;;;8.60;73.00;;;;;;4851562;28;117864;-86
2020/12/26 01:17:02;;;;;;;;;;;8.60;73.20;;;;;;4849933;28;118682;-86
2020/12/26 01:19:28;;;;;;;;;;;8.50;73.00;;;;;;4849594;28;119444;-86
2020/12/26 01:21:54;;;;;;;;;;;8.50;73.10;;;;;;4851156;28;117594;-86
2020/12/26 01:24:19;;;;;;;;;;;8.50;73.00;;;;;;4851937;28;117814;-86
2020/12/26 01:26:46;;;;;;;;;;;8.50;73.10;;;;;;4850262;28;121414;-86
2020/12/26 01:29:11;;;;;;;;;;;8.50;72.90;;;;;;4849989;28;117766;-86
2020/12/26 01:31:37;;;;;;;;;;;8.50;72.90;;;;;;4850743;28;117511;-86
2020/12/26 01:34:02;;;;;;;;;;;8.50;73.00;;;;;;4851277;28;117328;-86
2020/12/26 01:36:28;;;;;;;;;;;8.50;73.00;;;;;;4850279;28;121515;-86
2020/12/26 01:38:53;;;;;;;;;;;8.50;73.00;;;;;;4849766;28;119578;-86
2020/12/26 01:41:19;;;;;;;;;;;8.50;72.90;;;;;;4850580;28;117661;-86
2020/12/26 01:43:54;;;;;;;;;;;8.50;73.10;;;;;;4850858;28;117611;-86
2020/12/26 01:46:20;;;;;;;;;;;8.50;72.90;;;;;;4867070;28;118461;-86
2020/12/26 01:48:45;;;;;;;;;;;8.50;72.80;;;;;;4849890;28;119560;-86
2020/12/26 01:51:11;;;;;;;;;;;8.50;72.80;;;;;;4850553;28;117688;-86
2020/12/26 01:53:36;;;;;;;;;;;8.50;73.00;;;;;;4867103;28;117486;-86
2020/12/26 01:56:02;;;;;;;;;;;8.50;72.80;;;;;;4849717;28;118975;-86
2020/12/26 01:58:43;;;;;;;;;;;8.50;72.70;;;;;;5106727;27;117525;-85
2020/12/26 02:01:09;;;;;;;;;;;8.50;72.90;;;;;;5070228;27;117308;-85
2020/12/26 02:03:34;;;;;;;;;;;8.50;72.90;;;;;;5070164;27;117911;-85
2020/12/26 02:06:00;;;;;;;;;;;8.50;72.90;;;;;;5068623;27;118283;-85
2020/12/26 02:08:25;;;;;;;;;;;8.50;72.80;;;;;;5068537;27;119294;-85
2020/12/26 02:10:51;;;;;;;;;;;8.50;72.80;;;;;;5069701;27;117567;-85
2020/12/26 02:13:16;;;;;;;;;;;8.50;72.70;;;;;;5069911;27;117871;-85
2020/12/26 02:15:42;;;;;;;;;;;8.50;72.70;;;;;;5068606;27;120905;-85
2020/12/26 02:18:07;;;;;;;;;;;8.50;72.80;;;;;;5068368;27;120270;-85
2020/12/26 02:20:33;;;;;;;;;;;8.40;72.70;;;;;;5069227;27;117659;-85
2020/12/26 02:22:59;;;;;;;;;;;8.40;73.40;;;;;;5069768;27;117642;-85
2020/12/26 02:25:25;;;;;;;;;;;8.40;72.70;;;;;;5068370;27;118497;-85
2020/12/26 02:27:51;;;;;;;;;;;8.40;72.70;;;;;;5068368;27;120505;-85
2020/12/26 02:30:16;;;;;;;;;;;8.40;72.70;;;;;;5069417;27;117664;-85
2020/12/26 02:32:42;;;;;;;;;;;8.40;72.60;;;;;;5069665;27;117842;-85
2020/12/26 02:35:07;;;;;;;;;;;8.40;72.80;;;;;;5068127;27;120352;-85
2020/12/26 02:37:33;;;;;;;;;;;8.40;72.70;;;;;;5068271;27;120476;-85
2020/12/26 02:39:59;;;;;;;;;;;8.40;72.60;;;;;;5069119;27;117326;-85
2020/12/26 02:42:24;;;;;;;;;;;8.40;72.50;;;;;;5069650;27;117562;-85
2020/12/26 02:44:50;;;;;;;;;;;8.40;72.60;;;;;;5068008;27;120370;-85
2020/12/26 02:47:15;;;;;;;;;;;8.40;72.50;;;;;;5085590;27;117753;-85
2020/12/26 02:49:41;;;;;;;;;;;8.40;72.70;;;;;;5068878;27;117492;-85
2020/12/26 02:52:06;;;;;;;;;;;8.40;72.50;;;;;;5069319;27;117891;-85
2020/12/26 02:54:32;;;;;;;;;;;8.30;72.50;;;;;;5067862;27;121225;-85
2020/12/26 02:56:57;;;;;;;;;;;8.40;72.40;;;;;;5067548;27;119935;-85
2020/12/26 02:59:23;;;;;;;;;;;8.40;72.50;;;;;;5068677;27;117885;-85
2020/12/26 03:01:48;;;;;;;;;;;8.40;72.60;;;;;;5069039;27;117577;-85
2020/12/26 03:04:14;;;;;;;;;;;8.30;72.40;;;;;;5067799;27;120278;-85
2020/12/26 03:06:39;;;;;;;;;;;8.40;72.40;;;;;;5067529;27;119831;-85
2020/12/26 03:09:05;;;;;;;;;;;8.30;72.50;;;;;;5060558;27;117552;-85
2020/12/26 03:11:31;;;;;;;;;;;8.30;72.40;;;;;;5055213;27;117778;-85
2020/12/26 03:13:56;;;;;;;;;;;8.30;72.30;;;;;;5053941;27;119953;-85
2020/12/26 03:16:22;;;;;;;;;;;8.30;72.40;;;;;;5053841;27;120249;-85
2020/12/26 03:18:47;;;;;;;;;;;8.30;72.20;;;;;;5054825;27;117564;-85
2020/12/26 03:21:13;;;;;;;;;;;8.30;72.30;;;;;;5055142;27;117760;-85
2020/12/26 03:23:39;;;;;;;;;;;8.30;72.30;;;;;;5053852;27;119708;-85
2020/12/26 03:26:05;;;;;;;;;;;8.30;72.30;;;;;;5054270;27;119018;-85
2020/12/26 03:28:30;;;;;;;;;;;8.30;72.30;;;;;;5054910;27;117583;-85
2020/12/26 03:30:56;;;;;;;;;;;8.30;72.30;;;;;;5055024;27;117853;-85
2020/12/26 03:33:21;;;;;;;;;;;8.30;72.30;;;;;;5053758;27;120304;-85
2020/12/26 03:35:47;;;;;;;;;;;8.30;72.30;;;;;;5053752;27;120647;-85
2020/12/26 03:38:12;;;;;;;;;;;8.30;72.10;;;;;;5054672;27;117698;-85
2020/12/26 03:40:38;;;;;;;;;;;8.30;72.10;;;;;;5054673;27;117592;-85
2020/12/26 03:43:03;;;;;;;;;;;8.30;72.20;;;;;;5053708;27;119574;-85
2020/12/26 03:45:29;;;;;;;;;;;8.30;72.20;;;;;;5053729;27;118151;-85
2020/12/26 03:47:54;;;;;;;;;;;8.30;72.10;;;;;;5054592;27;117549;-85
2020/12/26 03:50:20;;;;;;;;;;;8.30;72.30;;;;;;5054781;27;117285;-85
2020/12/26 03:52:45;;;;;;;;;;;8.30;72.10;;;;;;5053826;27;118748;-85
2020/12/26 03:55:11;;;;;;;;;;;8.20;72.10;;;;;;5053454;27;117900;-85
2020/12/26 03:57:36;;;;;;;;;;;8.30;72.10;;;;;;5054087;27;117638;-85
2020/12/26 04:00:03;;;;;;;;;;;8.20;72.10;;;;;;5054297;27;117842;-85
2020/12/26 04:02:29;;;;;;;;;;;8.20;72.20;;;;;;5053550;27;117436;-85
2020/12/26 04:04:55;;;;;;;;;;;8.20;72.10;;;;;;5053212;27;119583;-85
2020/12/26 04:07:20;;;;;;;;;;;8.30;72.10;;;;;;5054275;27;117679;-85
2020/12/26 04:09:46;;;;;;;;;;;8.20;72.10;;;;;;5054492;27;117788;-85
2020/12/26 04:12:11;;;;;;;;;;;8.20;72.10;;;;;;5053170;27;119659;-85
2020/12/26 04:14:37;;;;;;;;;;;8.20;72.10;;;;;;5053062;27;118040;-85
2020/12/26 04:17:02;;;;;;;;;;;8.20;72.10;;;;;;5053898;27;117683;-85
2020/12/26 04:19:28;;;;;;;;;;;8.20;72.10;;;;;;5053922;27;117476;-84
2020/12/26 04:21:53;;;;;;;;;;;8.20;72.00;;;;;;5051878;27;120714;-84
2020/12/26 04:24:19;;;;;;;;;;;8.20;72.10;;;;;;5052941;27;117549;-84
2020/12/26 04:26:44;;;;;;;;;;;8.20;72.20;;;;;;5054075;27;117703;-84
2020/12/26 04:29:10;;;;;;;;;;;8.20;72.10;;;;;;5053847;27;117456;-84
2020/12/26 04:31:36;;;;;;;;;;;8.20;72.10;;;;;;5052637;27;118592;-84
2020/12/26 04:34:01;;;;;;;;;;;8.20;72.10;;;;;;5052895;27;117546;-84
2020/12/26 04:36:27;;;;;;;;;;;8.20;72.10;;;;;;5053997;27;117453;-85
2020/12/26 04:38:53;;;;;;;;;;;8.20;71.90;;;;;;5053607;27;117651;-85
2020/12/26 04:41:18;;;;;;;;;;;8.20;72.00;;;;;;5069878;27;118711;-85
2020/12/26 04:43:44;;;;;;;;;;;8.20;71.90;;;;;;5052641;27;119692;-85
2020/12/26 04:46:12;;;;;;;;;;;8.20;71.90;;;;;;5071153;27;117505;-85
2020/12/26 04:48:37;;;;;;;;;;;8.20;72.00;;;;;;5071037;27;118285;-85
2020/12/26 04:51:03;;;;;;;;;;;8.20;72.10;;;;;;5052489;27;117502;-85
2020/12/26 04:53:30;;;;;;;;;;;8.20;72.10;;;;;;5052473;27;118472;-85
2020/12/26 04:55:56;;;;;;;;;;;8.20;72.00;;;;;;5053980;27;117330;-85
2020/12/26 04:58:21;;;;;;;;;;;8.20;72.00;;;;;;5070268;27;117851;-85
2020/12/26 05:00:47;;;;;;;;;;;8.10;71.90;;;;;;5052228;27;118828;-85
2020/12/26 05:03:13;;;;;;;;;;;8.20;72.00;;;;;;5052540;27;119830;-85
2020/12/26 05:05:39;;;;;;;;;;;8.20;72.60;;;;;;5053572;27;117536;-85
2020/12/26 05:08:05;;;;;;;;;;;8.10;71.80;;;;;;5053461;27;117650;-85
2020/12/26 05:10:31;;;;;;;;;;;8.10;71.80;;;;;;5052129;27;120214;-85
2020/12/26 05:12:56;;;;;;;;;;;8.10;71.90;;;;;;5052234;27;117532;-85
2020/12/26 05:15:22;;;;;;;;;;;8.10;71.80;;;;;;5053258;27;117519;-85
2020/12/26 05:17:48;;;;;;;;;;;8.10;71.80;;;;;;5053294;27;117906;-85
2020/12/26 05:20:13;;;;;;;;;;;8.10;71.80;;;;;;5051542;27;120494;-85
2020/12/26 05:22:39;;;;;;;;;;;8.10;72.40;;;;;;5052192;27;117585;-85
2020/12/26 05:25:05;;;;;;;;;;;8.10;71.70;;;;;;5053049;27;117677;-85
2020/12/26 05:27:30;;;;;;;;;;;8.10;71.60;;;;;;5053325;27;117869;-85
2020/12/26 05:29:56;;;;;;;;;;;8.10;71.70;;;;;;5068964;27;118376;-85
2020/12/26 05:32:22;;;;;;;;;;;8.10;71.80;;;;;;5051542;27;117454;-85
2020/12/26 05:34:47;;;;;;;;;;;8.10;71.70;;;;;;5053273;27;117338;-85
2020/12/26 05:37:19;;;;;;;;;;;8.10;71.60;;;;;;5052910;27;117408;-85
2020/12/26 05:39:44;;;;;;;;;;;8.10;71.60;;;;;;5051804;27;120697;-85
2020/12/26 05:42:16;;;;;;;;;;;8.10;71.70;;;;;;5069207;27;117447;-84
2020/12/26 05:44:42;;;;;;;;;;;8.10;71.70;;;;;;5052866;27;117453;-84
2020/12/26 05:47:07;;;;;;;;;;;8.10;71.70;;;;;;5052817;27;117861;-84
2020/12/26 05:49:34;;;;;;;;;;;8.10;71.50;;;;;;5051477;27;121339;-84
2020/12/26 05:52:04;;;;;;;;;;;8.10;71.50;;;;;;5051516;27;117610;-84
2020/12/26 05:54:29;;;;;;;;;;;8.10;71.50;;;;;;5052809;27;117551;-84
2020/12/26 05:57:04;;;;;;;;;;;8.00;71.50;;;;;;5052781;27;117844;-84
2020/12/26 05:59:30;;;;;;;;;;;8.00;71.40;;;;;;5068435;27;118356;-84
2020/12/26 06:01:56;;;;;;;;;;;8.00;71.40;;;;;;5051266;27;118624;-84
2020/12/26 06:04:21;;;;;;;;;;;8.00;71.50;;;;;;5052424;27;117465;-84
2020/12/26 06:06:51;;;;;;;;;;;8.00;71.50;;;;;;5052235;27;117857;-84
2020/12/26 06:09:17;;;;;;;;;;;8.00;71.40;;;;;;5050914;27;118918;-84
2020/12/26 06:11:43;;;;;;;;;;;8.00;71.40;;;;;;5051007;27;118608;-84
2020/12/26 06:14:08;;;;;;;;;;;8.00;71.40;;;;;;5051931;27;117465;-84
2020/12/26 06:16:36;;;;;;;;;;;8.00;71.40;;;;;;5052149;27;117777;-84
2020/12/26 06:19:02;;;;;;;;;;;8.00;71.50;;;;;;5051226;27;119371;-84
2020/12/26 06:21:27;;;;;;;;;;;8.00;71.50;;;;;;5051104;27;117839;-85
2020/12/26 06:23:53;;;;;;;;;;;8.00;71.50;;;;;;5052139;27;117454;-85
2020/12/26 06:26:18;;;;;;;;;;;8.00;71.40;;;;;;5052544;27;117504;-85
2020/12/26 06:28:44;;;;;;;;;;;8.00;71.40;;;;;;5050560;27;119332;-85
2020/12/26 06:31:10;;;;;;;;;;;8.00;71.50;;;;;;5050840;27;118738;-85
2020/12/26 06:33:39;;;;;;;;;;;8.00;71.40;;;;;;5051845;27;117469;-85
2020/12/26 06:36:05;;;;;;;;;;;8.00;71.40;;;;;;5051813;27;117288;-84
2020/12/26 06:38:31;;;;;;;;;;;8.00;71.40;;;;;;5050386;27;118666;-84
2020/12/26 06:41:16;;;;;;;;;;;8.00;71.50;;;;;;5050803;27;117726;-84
2020/12/26 06:43:42;;;;;;;;;;;8.00;71.50;;;;;;5052406;27;117532;-84
2020/12/26 06:46:28;;;;;;;;;;;8.00;71.50;;;;;;5072513;27;117475;-84
2020/12/26 06:48:57;;;;;;;;;;;8.00;71.50;;;;;;5052760;27;118609;-84
2020/12/26 06:51:29;;;;;;;;;;;8.00;71.50;;;;;;5054619;27;117636;-85
2020/12/26 06:53:55;;;;;;;;;;;8.00;71.50;;;;;;5055083;27;117440;-85
2020/12/26 06:56:44;;;;;;;;;;;8.00;71.60;;;;;;5055057;27;117852;-85
2020/12/26 06:59:10;;;;;;;;;;;8.00;71.60;;;;;;5053775;27;118713;-85
2020/12/26 07:01:36;;;;;;;;;;;8.00;71.50;;;;;;5053526;27;117611;-85
2020/12/26 07:04:11;;;;;;;;;;;7.90;71.60;;;;;;5055051;27;117461;-85
2020/12/26 07:06:40;;;;;;;;;;;7.90;71.70;;;;;;5072135;27;117509;-85
2020/12/26 07:09:05;;;;;;;;;;;7.90;71.60;;;;;;5070724;27;120011;-85
2020/12/26 07:11:31;;;;;;;;;;;7.90;71.70;;;;;;5053789;27;117378;-85
2020/12/26 07:13:57;;;;;;;;;;;7.90;71.60;;;;;;5054734;27;117550;-85
2020/12/26 07:16:41;;;;;;;;;;;7.90;71.60;;;;;;5055019;27;117992;-85
2020/12/26 07:19:19;;;;;;;;;;;8.00;71.70;;;;;;5053348;27;118705;-84
2020/12/26 07:21:45;;;;;;;;;;;7.90;71.70;;;;;;5070658;27;118801;-84
2020/12/26 07:24:14;;;;;;;;;;;7.90;71.70;;;;;;5072063;27;117371;-84
2020/12/26 07:26:40;;;;;;;;;;;7.90;71.80;;;;;;5054399;27;117874;-84
2020/12/26 07:29:05;;;;;;;;;;;7.90;71.70;;;;;;5053258;27;119193;-85
2020/12/26 07:31:45;;;;;;;;;;;7.90;71.80;;;;;;5053389;27;117468;-85
2020/12/26 07:34:31;;;;;;;;;;;7.90;72.40;;;;;;5054486;27;117462;-85
2020/12/26 07:36:56;;;;;;;;;;;7.90;71.90;;;;;;5089796;27;117638;-84
2020/12/26 07:39:22;;;;;;;;;;;7.90;71.90;;;;;;5053144;27;117511;-84
2020/12/26 07:41:48;;;;;;;;;;;7.90;71.80;;;;;;5053517;27;117467;-84
2020/12/26 07:44:14;;;;;;;;;;;7.90;71.80;;;;;;5054414;27;117513;-84
2020/12/26 07:46:40;;;;;;;;;;;7.90;71.80;;;;;;5054585;27;117860;-84
2020/12/26 07:49:06;;;;;;;;;;;7.90;71.90;;;;;;5052947;27;120650;-84
2020/12/26 07:51:31;;;;;;;;;;;7.90;71.90;;;;;;5052861;27;118296;-84
2020/12/26 07:53:57;;;;;;;;;;;7.80;71.80;;;;;;5054112;27;117311;-84
2020/12/26 07:56:26;;;;;;;;;;;7.90;71.90;;;;;;5053620;27;117807;-85
2020/12/26 07:58:51;;;;;;;;;;;7.90;71.90;;;;;;5052969;27;117578;-85
2020/12/26 08:01:23;;;;;;;;;;;7.90;72.00;;;;;;5052960;27;119680;-85
2020/12/26 08:03:57;;;;;;;;;;;7.90;71.90;;;;;;5054053;27;117323;-85
2020/12/26 08:06:23;;;;;;;;;;;7.90;71.90;;;;;;5054270;27;117693;-85
2020/12/26 08:08:49;;;;;;;;;;;7.90;71.90;;;;;;5052792;27;117741;-85
2020/12/26 08:11:23;;;;;;;;;;;7.90;72.00;;;;;;5052740;27;119649;-85
2020/12/26 08:14:01;;;;;;;;;;;7.80;72.00;;;;;;5054126;27;117528;-85
2020/12/26 08:16:26;;;;;;;;;;;7.80;72.10;;;;;;5053768;27;117550;-85
2020/12/26 08:18:52;;;;;;;;;;;7.80;72.10;;;;;;5052318;27;120666;-84
2020/12/26 08:21:19;;;;;;;;;;;7.80;72.00;;;;;;5070081;27;117846;-84
2020/12/26 08:23:54;;;;;;;;;;;7.80;72.20;;;;;;5054010;27;117512;-84
2020/12/26 08:26:19;;;;;;;;;;;7.80;72.00;;;;;;5053922;27;117686;-84
2020/12/26 08:28:45;;;;;;;;;;;7.80;72.20;;;;;;5069784;27;118455;-84
2020/12/26 08:31:10;;;;;;;;;;;7.80;72.10;;;;;;5052491;27;117437;-84
2020/12/26 08:33:38;;;;;;;;;;;7.80;72.10;;;;;;5053685;27;117381;-84
2020/12/26 08:36:05;;;;;;;;;;;7.80;72.20;;;;;;5053699;27;117785;-84
2020/12/26 08:38:44;;;;;;;;;;;7.80;72.10;;;;;;5052735;27;118764;-84
2020/12/26 08:41:10;;;;;;;;;;;7.80;72.30;;;;;;5052243;27;117555;-84
2020/12/26 08:43:36;;;;;;;;;;;7.80;72.20;;;;;;5070884;27;117518;-84
2020/12/26 08:46:10;;;;;;;;;;;7.80;72.30;;;;;;5053681;27;117327;-84
2020/12/26 08:48:36;;;;;;;;;;;7.80;72.30;;;;;;5052626;27;118660;-84
2020/12/26 08:51:01;;;;;;;;;;;7.80;72.30;;;;;;5052167;27;118297;-84
2020/12/26 08:53:27;;;;;;;;;;;7.80;72.30;;;;;;5053234;27;117532;-84
2020/12/26 08:55:53;;;;;;;;;;;7.80;72.30;;;;;;5053285;27;117915;-84
2020/12/26 08:58:37;;;;;;;;;;;7.80;72.30;;;;;;5051925;27;120498;-84
2020/12/26 09:01:05;;;;;;;;;;;7.80;72.30;;;;;;5051822;27;117952;-84
2020/12/26 09:03:32;;;;;;;;;;;7.80;72.30;;;;;;5053256;27;117568;-84
2020/12/26 09:05:58;;;;;;;;;;;7.80;72.30;;;;;;5070203;27;117688;-84
2020/12/26 09:08:33;;;;;;;;;;;7.80;72.40;;;;;;5051345;27;117679;-84
2020/12/26 09:11:00;;;;;;;;;;;7.80;72.50;;;;;;5051816;27;117483;-84
2020/12/26 09:13:29;;;;;;;;;;;7.80;72.50;;;;;;5052700;27;117445;-84
2020/12/26 09:15:55;;;;;;;;;;;7.80;72.60;;;;;;5053081;27;117711;-84
2020/12/26 09:18:24;;;;;;;;;;;7.80;72.60;;;;;;5051590;27;119531;-84
2020/12/26 09:20:51;;;;;;;;;;;7.80;72.70;;;;;;5051514;27;118192;-84
2020/12/26 09:23:16;;;;;;;;;;;7.80;72.60;;;;;;5053106;27;117508;-84
2020/12/26 09:25:42;;;;;;;;;;;7.80;72.70;;;;;;5052905;27;117345;-84
2020/12/26 09:28:07;;;;;;;;;;;7.80;72.70;;;;;;5051428;27;120403;-84
2020/12/26 09:30:33;;;;;;;;;;;7.80;72.90;;;;;;5051240;27;119477;-84
2020/12/26 09:32:58;;;;;;;;;;;7.80;72.90;;;;;;5052488;27;117583;-84
2020/12/26 09:35:24;;;;;;;;;;;7.80;72.90;;;;;;5052859;27;117884;-84
2020/12/26 09:37:53;;;;;;;;;;;7.70;72.90;;;;;;5051444;27;118351;-84
2020/12/26 09:40:19;;;;;;;;;;;7.70;72.90;;;;;;5051264;27;117679;-84
2020/12/26 09:42:45;;;;;;;;;;;7.70;72.90;;;;;;5052453;27;117572;-84
2020/12/26 09:45:10;;;;;;;;;;;7.80;73.00;;;;;;5052500;27;118824;-84
2020/12/26 09:47:36;;;;;;;;;;;7.70;72.90;;;;;;5051353;27;118887;-84
2020/12/26 09:50:01;;;;;;;;;;;7.70;73.00;;;;;;5051095;27;119429;-84
2020/12/26 09:52:27;;;;;;;;;;;7.70;72.90;;;;;;5052493;27;117627;-84
2020/12/26 09:54:52;;;;;;;;;;;7.70;73.10;;;;;;5052352;27;117322;-84
2020/12/26 09:57:18;;;;;;;;;;;7.70;73.20;;;;;;5050836;27;117675;-84
2020/12/26 09:59:43;;;;;;;;;;;7.70;73.10;;;;;;5051230;27;119521;-84
2020/12/26 10:02:09;;;;;;;;;;;7.70;73.10;;;;;;5052283;27;117498;-84
2020/12/26 10:04:34;;;;;;;;;;;7.70;73.20;;;;;;5052577;27;117712;-80
2020/12/26 10:07:00;;;;;;;;;;;7.70;73.20;;;;;;5068337;27;117341;-80
2020/12/26 10:09:26;;;;;;;;;;;7.70;73.20;;;;;;5051065;27;119768;-80
2020/12/26 10:11:51;;;;;;;;;;;7.70;73.20;;;;;;5052558;27;117817;-80
2020/12/26 10:14:17;;;;;;;;;;;7.70;73.40;;;;;;5069778;27;117817;-80
2020/12/26 10:16:42;;;;;;;;;;;7.70;73.50;;;;;;5051058;27;121229;-80
2020/12/26 10:19:08;;;;;;;;;;;7.70;73.40;;;;;;5052007;27;118336;-80
2020/12/26 10:21:33;;;;;;;;;;;7.70;73.40;;;;;;5072724;27;117464;-80
2020/12/26 10:23:59;;;;;;;;;;;7.70;73.40;;;;;;5055794;27;117798;-80
2020/12/26 10:26:24;;;;;;;;;;;7.70;73.50;;;;;;5054415;27;118451;-80
2020/12/26 10:28:50;;;;;;;;;;;7.70;73.50;;;;;;5054342;27;119595;-80
2020/12/26 10:31:15;;;;;;;;;;;7.70;73.50;;;;;;5072784;27;117441;-83
2020/12/26 10:33:41;;;;;;;;;;;7.70;73.70;;;;;;5055809;27;117511;-83
2020/12/26 10:36:06;;;;;;;;;;;7.70;73.60;;;;;;5054265;27;117659;-83
2020/12/26 10:38:32;;;;;;;;;;;7.70;73.60;;;;;;5054063;27;119619;-83
2020/12/26 10:40:57;;;;;;;;;;;7.70;73.70;;;;;;5072795;27;117769;-83
2020/12/26 10:43:23;;;;;;;;;;;7.70;73.60;;;;;;5055424;27;117291;-83
2020/12/26 10:45:51;;;;;;;;;;;7.70;73.70;;;;;;5054170;27;119355;-84
2020/12/26 10:48:17;;;;;;;;;;;7.70;73.70;;;;;;5054566;27;117926;-83
2020/12/26 10:50:42;;;;;;;;;;;7.70;73.80;;;;;;5055036;27;117776;-83
2020/12/26 10:53:08;;;;;;;;;;;7.70;73.90;;;;;;5055414;27;117827;-83
2020/12/26 10:55:35;;;;;;;;;;;7.70;73.90;;;;;;5054020;27;121396;-83
2020/12/26 10:58:00;;;;;;;;;;;7.70;73.90;;;;;;5053227;27;119490;-83
2020/12/26 11:00:27;;;;;;;;;;;7.70;74.00;;;;;;5055094;27;117545;-84
2020/12/26 11:02:53;;;;;;;;;;;7.70;74.00;;;;;;5055398;27;118276;-84
2020/12/26 11:05:18;;;;;;;;;;;7.60;74.00;;;;;;5053724;27;119266;-84
2020/12/26 11:08:26;;;;;;;;;;;7.70;73.90;;;;;;5053569;27;119738;-86
2020/12/26 11:10:52;;;;;;;;;;;7.70;74.00;;;;;;5057774;27;117617;-83
2020/12/26 11:13:18;;;;;;;;;;;7.60;74.00;;;;;;5055154;27;117790;-83
2020/12/26 11:15:43;;;;;;;;;;;7.60;74.10;;;;;;5071069;27;117467;-84
2020/12/26 11:18:09;;;;;;;;;;;7.60;74.10;;;;;;5053863;27;117987;-84
2020/12/26 11:20:34;;;;;;;;;;;7.70;74.10;;;;;;5054525;27;117370;-84
2020/12/26 11:23:00;;;;;;;;;;;7.60;74.10;;;;;;5055118;27;117862;-84
2020/12/26 11:25:25;;;;;;;;;;;7.60;74.10;;;;;;5071013;27;117533;-84
2020/12/26 11:27:54;;;;;;;;;;;7.70;74.20;;;;;;5053611;27;117624;-84
2020/12/26 11:30:19;;;;;;;;;;;7.60;74.20;;;;;;5053718;27;117794;-84
2020/12/26 11:32:45;;;;;;;;;;;7.60;74.10;;;;;;5054339;27;117929;-84
2020/12/26 11:35:10;;;;;;;;;;;7.60;74.10;;;;;;5053400;27;119475;-84
2020/12/26 11:37:39;;;;;;;;;;;7.60;74.20;;;;;;5053535;27;117778;-84
2020/12/26 11:40:05;;;;;;;;;;;7.60;74.20;;;;;;5071575;27;117428;-84
2020/12/26 11:42:30;;;;;;;;;;;7.60;74.30;;;;;;5054635;27;117536;-84
2020/12/26 11:44:56;;;;;;;;;;;7.60;74.40;;;;;;5053264;27;119599;-84
2020/12/26 11:47:22;;;;;;;;;;;7.60;74.40;;;;;;5053103;27;120653;-84
2020/12/26 11:49:47;;;;;;;;;;;7.60;74.30;;;;;;5054194;27;117338;-84
2020/12/26 11:52:14;;;;;;;;;;;7.60;74.40;;;;;;5054415;27;117822;-84
2020/12/26 11:54:39;;;;;;;;;;;7.60;74.30;;;;;;5053170;27;117512;-84
2020/12/26 11:57:05;;;;;;;;;;;7.60;74.40;;;;;;5052362;27;117482;-84
2020/12/26 11:59:30;;;;;;;;;;;7.60;74.40;;;;;;5053876;27;117363;-84
2020/12/26 12:01:56;;;;;;;;;;;7.60;74.40;;;;;;5054334;27;117311;-84
2020/12/26 12:04:22;;;;;;;;;;;7.60;74.40;;;;;;5052850;27;119514;-84
2020/12/26 12:06:47;;;;;;;;;;;7.60;74.40;;;;;;5052877;27;119789;-84
2020/12/26 12:09:13;;;;;;;;;;;7.60;74.40;;;;;;5053665;27;117667;-84
2020/12/26 12:11:38;;;;;;;;;;;7.60;74.50;;;;;;5054090;27;118260;-84
2020/12/26 12:14:04;;;;;;;;;;;7.60;74.50;;;;;;5052906;27;117777;-84
2020/12/26 12:16:29;;;;;;;;;;;7.60;74.50;;;;;;5052805;27;118629;-84
2020/12/26 12:18:55;;;;;;;;;;;7.60;74.50;;;;;;5053289;27;119593;-84
2020/12/26 12:21:21;;;;;;;;;;;7.60;74.50;;;;;;5053469;27;117529;-84
2020/12/26 12:23:46;;;;;;;;;;;7.50;74.50;;;;;;5052875;27;117504;-84
2020/12/26 12:26:19;;;;;;;;;;;7.60;74.60;;;;;;5052648;27;117417;-84
2020/12/26 12:28:44;;;;;;;;;;;7.60;74.60;;;;;;5053345;27;117686;-84
2020/12/26 12:31:10;;;;;;;;;;;7.60;74.60;;;;;;5053939;27;117489;-84
2020/12/26 12:33:35;;;;;;;;;;;7.60;74.70;;;;;;5052343;27;118839;-84
2020/12/26 12:36:03;;;;;;;;;;;7.60;74.60;;;;;;5052472;27;117774;-84
2020/12/26 12:38:29;;;;;;;;;;;7.60;74.60;;;;;;5053485;27;117513;-84
2020/12/26 12:40:55;;;;;;;;;;;7.60;74.60;;;;;;5052994;27;117976;-84
2020/12/26 12:43:23;;;;;;;;;;;7.60;74.60;;;;;;5052140;27;121116;-84
2020/12/26 12:45:48;;;;;;;;;;;7.50;74.50;;;;;;5052067;27;117588;-84
2020/12/26 12:48:14;;;;;;;;;;;7.60;74.60;;;;;;5053152;27;117615;-84
2020/12/26 12:50:39;;;;;;;;;;;7.50;74.60;;;;;;5053119;27;117563;-84
2020/12/26 12:53:05;;;;;;;;;;;7.50;74.50;;;;;;5052039;27;117562;-84
2020/12/26 12:55:30;;;;;;;;;;;7.50;74.60;;;;;;5052192;27;118572;-84
2020/12/26 12:57:56;;;;;;;;;;;7.50;74.60;;;;;;5069919;27;117629;-84
2020/12/26 13:00:21;;;;;;;;;;;7.50;74.60;;;;;;5053249;27;117609;-84
2020/12/26 13:02:47;;;;;;;;;;;7.50;74.60;;;;;;5052289;27;118572;-84
2020/12/26 13:05:12;;;;;;;;;;;7.50;74.50;;;;;;5052057;27;118746;-84
2020/12/26 13:07:38;;;;;;;;;;;7.50;74.50;;;;;;5052750;27;117404;-84
2020/12/26 13:10:03;;;;;;;;;;;7.50;74.50;;;;;;5052580;27;117715;-84
2020/12/26 13:12:29;;;;;;;;;;;7.50;74.50;;;;;;5051531;27;119526;-84
2020/12/26 13:14:54;;;;;;;;;;;7.50;74.50;;;;;;5051784;27;117270;-84
2020/12/26 13:17:20;;;;;;;;;;;7.50;74.50;;;;;;5070255;27;117759;-84
2020/12/26 13:19:45;;;;;;;;;;;7.50;74.60;;;;;;5052872;27;117877;-84
2020/12/26 13:22:11;;;;;;;;;;;7.50;74.60;;;;;;5051659;27;118784;-84
2020/12/26 13:24:37;;;;;;;;;;;7.50;74.60;;;;;;5051915;27;119871;-84
2020/12/26 13:27:02;;;;;;;;;;;7.50;74.60;;;;;;5052995;27;117537;-84
2020/12/26 13:29:28;;;;;;;;;;;7.50;74.60;;;;;;5052531;27;117506;-84
2020/12/26 13:31:54;;;;;;;;;;;7.50;74.70;;;;;;5051393;27;118676;-84
2020/12/26 13:34:19;;;;;;;;;;;7.50;74.70;;;;;;5051497;27;118923;-84
2020/12/26 13:36:45;;;;;;;;;;;7.50;74.70;;;;;;5069913;27;117510;-84
2020/12/26 13:39:10;;;;;;;;;;;7.50;74.70;;;;;;5052574;27;117378;-84
2020/12/26 13:41:36;;;;;;;;;;;7.50;74.80;;;;;;5051358;27;117567;-84
2020/12/26 13:44:01;;;;;;;;;;;7.50;74.70;;;;;;5051893;27;117807;-84
2020/12/26 13:46:27;;;;;;;;;;;7.40;74.60;;;;;;5052586;27;117310;-84
2020/12/26 13:48:53;;;;;;;;;;;7.50;74.60;;;;;;5052324;27;117371;-84
2020/12/26 13:51:18;;;;;;;;;;;7.40;74.50;;;;;;5051470;27;119522;-84
2020/12/26 13:53:44;;;;;;;;;;;7.40;74.60;;;;;;5051223;27;119463;-84
2020/12/26 13:56:12;;;;;;;;;;;7.40;74.70;;;;;;5052315;27;117554;-84
2020/12/26 13:58:38;;;;;;;;;;;7.50;74.70;;;;;;5051791;27;117964;-84
2020/12/26 14:01:03;;;;;;;;;;;7.40;74.60;;;;;;5051208;27;118735;-84
2020/12/26 14:03:29;;;;;;;;;;;7.40;74.70;;;;;;5051181;27;117543;-84
2020/12/26 14:05:55;;;;;;;;;;;7.40;74.70;;;;;;5052152;27;117441;-84
2020/12/26 14:08:20;;;;;;;;;;;7.40;74.80;;;;;;5052164;27;117834;-85
2020/12/26 14:10:46;;;;;;;;;;;7.40;74.80;;;;;;5050933;27;119428;-84
2020/12/26 14:13:11;;;;;;;;;;;7.40;74.80;;;;;;5068594;27;117972;-84